Time;durP1;ratioP1;P1;durP2;ratioP2;P2;SDS_P1;SDS_P2;PMS_P1;PMS_P2;Temp;Humidity;BMP_temperature;BMP_pressure;BME280_temperature;BME280_humidity;BME280_pressure;Samples;Min_cycle;Max_cycle;Signal;HPM_P1;HPM_P2
2023/09/28 00:02:52;;;;;;;1999.90;999.90;;;18.90;99.90;;;;;;5104345;28;20124;-67
2023/09/28 00:05:19;;;;;;;1999.90;999.90;;;18.90;99.90;;;;;;5077936;28;20059;-67
2023/09/28 00:07:47;;;;;;;1999.90;999.90;;;18.90;99.90;;;;;;5087775;28;20028;-67
2023/09/28 00:10:15;;;;;;;1999.90;999.90;;;18.80;99.90;;;;;;5096667;28;20114;-67
2023/09/28 00:12:42;;;;;;;1999.90;999.90;;;18.90;99.90;;;;;;5106756;28;20043;-67
2023/09/28 00:15:10;;;;;;;1999.90;999.90;;;18.80;99.90;;;;;;5094421;28;20034;-67
2023/09/28 00:17:38;;;;;;;1999.90;999.90;;;18.80;99.90;;;;;;5096843;28;20040;-77
2023/09/28 00:20:19;;;;;;;1999.90;999.90;;;18.90;99.90;;;;;;5108515;28;20110;-67
2023/09/28 00:22:46;;;;;;;1999.90;999.90;;;18.90;99.90;;;;;;5111570;28;20073;-67
2023/09/28 00:25:12;;;;;;;1999.90;999.90;;;18.90;99.90;;;;;;5102593;28;20043;-67
2023/09/28 00:27:39;;;;;;;1999.90;999.90;;;18.90;99.90;;;;;;5087404;28;20321;-67
2023/09/28 00:30:09;;;;;;;1999.90;999.90;;;18.90;99.90;;;;;;5100359;28;20028;-67
2023/09/28 00:32:35;;;;;;;1999.90;999.90;;;18.90;99.90;;;;;;5100287;28;20027;-67
2023/09/28 00:35:04;;;;;;;1999.90;999.90;;;18.90;99.90;;;;;;5105341;28;20085;-67
2023/09/28 00:37:30;;;;;;;1999.90;999.90;;;18.90;99.90;;;;;;5110017;28;20074;-67
2023/09/28 00:39:55;;;;;;;1999.90;999.90;;;18.90;99.90;;;;;;5108933;28;20031;-67
2023/09/28 00:42:22;;;;;;;1999.90;999.90;;;18.90;99.90;;;;;;5104004;28;20024;-68
2023/09/28 00:44:48;;;;;;;1999.90;999.90;;;18.80;99.90;;;;;;5105365;28;20036;-67
2023/09/28 00:47:15;;;;;;;1999.90;999.90;;;18.80;99.90;;;;;;5095343;28;20028;-67
2023/09/28 00:49:43;;;;;;;1999.90;999.90;;;18.90;99.90;;;;;;5108957;28;20048;-68
2023/09/28 00:52:10;;;;;;;1999.90;999.90;;;18.90;99.90;;;;;;5103560;28;20028;-67
2023/09/28 00:54:38;;;;;;;1999.90;999.90;;;18.90;99.90;;;;;;5106419;28;20024;-67
2023/09/28 00:57:06;;;;;;;1999.90;999.90;;;18.90;99.90;;;;;;5110372;28;20088;-67
2023/09/28 00:59:32;;;;;;;1999.90;999.90;;;19.00;99.90;;;;;;5098445;28;20465;-67
2023/09/28 01:01:57;;;;;;;1999.90;999.90;;;19.00;99.90;;;;;;5107595;28;20410;-67
2023/09/28 01:04:23;;;;;;;1999.90;999.90;;;19.00;99.90;;;;;;5110263;28;20043;-67
2023/09/28 01:06:49;;;;;;;1999.90;999.90;;;18.90;99.90;;;;;;5112698;28;20035;-67
2023/09/28 01:09:15;;;;;;;1999.90;999.90;;;18.90;99.90;;;;;;5101174;28;20044;-67
2023/09/28 01:11:41;;;;;;;1999.90;999.90;;;18.90;99.90;;;;;;5101949;28;20024;-67
2023/09/28 01:14:07;;;;;;;1999.90;999.90;;;18.90;99.90;;;;;;5106433;28;20028;-67
2023/09/28 01:16:33;;;;;;;1999.90;999.90;;;18.80;99.90;;;;;;5085702;28;20024;-67
2023/09/28 01:18:59;;;;;;;1999.90;999.90;;;18.80;99.90;;;;;;5117064;28;20264;-67
2023/09/28 01:21:25;;;;;;;1999.90;999.90;;;18.80;99.90;;;;;;5098497;28;20039;-67
2023/09/28 01:23:51;;;;;;;1999.90;999.90;;;18.80;99.90;;;;;;5112353;28;20283;-67
2023/09/28 01:26:18;;;;;;;1999.90;999.90;;;18.70;99.90;;;;;;5106680;28;20020;-67
2023/09/28 01:28:43;;;;;;;1999.90;999.90;;;18.70;99.90;;;;;;5103932;28;20074;-67
2023/09/28 01:31:10;;;;;;;1999.90;999.90;;;18.60;99.90;;;;;;5100311;28;20028;-67
2023/09/28 01:33:35;;;;;;;1999.90;999.90;;;18.60;99.90;;;;;;5109522;28;20028;-67
2023/09/28 01:36:01;;;;;;;1999.90;999.90;;;18.60;99.90;;;;;;5108267;28;20360;-67
2023/09/28 01:38:40;;;;;;;1999.90;999.90;;;18.60;99.90;;;;;;5085690;28;20035;-67
2023/09/28 01:41:06;;;;;;;1999.90;999.90;;;18.50;99.90;;;;;;5102394;28;20032;-67
2023/09/28 01:43:32;;;;;;;1999.90;999.90;;;18.50;99.90;;;;;;5103618;28;20035;-67
2023/09/28 01:45:58;;;;;;;1999.90;999.90;;;18.50;99.90;;;;;;5096624;28;20028;-67
2023/09/28 01:48:23;;;;;;;1999.90;999.90;;;18.60;99.90;;;;;;5103797;28;20397;-67
2023/09/28 01:50:49;;;;;;;1999.90;999.90;;;18.50;99.90;;;;;;5105954;28;20316;-67
2023/09/28 01:53:15;;;;;;;1999.90;999.90;;;18.50;99.90;;;;;;5113834;28;20110;-67
2023/09/28 01:55:41;;;;;;;1999.90;999.90;;;18.50;99.90;;;;;;5097878;28;20032;-68
2023/09/28 01:58:07;;;;;;;1999.90;999.90;;;18.50;99.90;;;;;;5101506;28;20028;-68
2023/09/28 02:00:35;;;;;;;1999.90;999.90;;;18.50;99.90;;;;;;5106080;28;20030;-67
2023/09/28 02:03:03;;;;;;;1999.90;999.90;;;18.50;99.90;;;;;;5101043;28;20123;-67
2023/09/28 02:05:32;;;;;;;1999.90;999.90;;;18.50;99.90;;;;;;5104076;28;20106;-67
2023/09/28 02:07:59;;;;;;;1999.90;999.90;;;18.40;99.90;;;;;;5116737;28;20293;-67
2023/09/28 02:10:25;;;;;;;1999.90;999.90;;;18.40;99.90;;;;;;5099965;28;20059;-67
2023/09/28 02:12:51;;;;;;;1999.90;999.90;;;18.40;99.90;;;;;;5087009;28;20376;-67
2023/09/28 02:15:17;;;;;;;1999.90;999.90;;;18.40;99.90;;;;;;5099626;28;20028;-67
2023/09/28 02:17:44;;;;;;;1999.90;999.90;;;18.40;99.90;;;;;;5097458;28;20059;-67
2023/09/28 02:20:10;;;;;;;;;;;18.30;99.90;;;;;;5095907;28;20073;-67
2023/09/28 02:22:43;;;;;;;1999.90;999.90;;;18.30;99.90;;;;;;5098063;28;19918;-67
2023/09/28 02:25:20;;;;;;;1999.90;999.90;;;18.30;99.90;;;;;;5106216;28;20032;-67
2023/09/28 02:27:47;;;;;;;1999.90;999.90;;;18.30;99.90;;;;;;5104428;28;20454;-66
2023/09/28 02:30:17;;;;;;;1999.90;999.90;;;18.20;99.90;;;;;;5098533;28;20077;-66
2023/09/28 02:32:44;;;;;;;1999.90;999.90;;;18.20;99.90;;;;;;5112024;28;20027;-67
2023/09/28 02:35:13;;;;;;;1999.90;999.90;;;18.20;99.90;;;;;;5114005;28;20039;-67
2023/09/28 02:37:39;;;;;;;1999.90;999.90;;;18.20;99.90;;;;;;5106782;28;20032;-66
2023/09/28 02:40:06;;;;;;;1999.90;999.90;;;18.20;99.90;;;;;;5107058;28;20583;-66
2023/09/28 02:42:33;;;;;;;1999.90;999.90;;;18.10;99.90;;;;;;5110510;28;20158;-67
2023/09/28 02:44:59;;;;;;;1999.90;999.90;;;18.10;99.90;;;;;;5116219;28;20028;-67
2023/09/28 02:47:26;;;;;;;1999.90;999.90;;;18.10;99.90;;;;;;5105827;28;20300;-67
2023/09/28 02:49:54;;;;;;;1999.90;999.90;;;18.10;99.90;;;;;;5114378;28;20040;-67
2023/09/28 02:52:20;;;;;;;1999.90;999.90;;;18.00;99.90;;;;;;5100943;28;20310;-67
2023/09/28 02:54:46;;;;;;;1999.90;999.90;;;18.00;99.90;;;;;;5105233;28;20094;-67
2023/09/28 02:57:13;;;;;;;1999.90;999.90;;;18.00;99.90;;;;;;5103663;28;20020;-67
2023/09/28 02:59:38;;;;;;;1999.90;999.90;;;18.00;99.90;;;;;;5104686;28;20063;-67
2023/09/28 03:02:05;;;;;;;1999.90;999.90;;;18.00;99.90;;;;;;5103744;28;20066;-67
2023/09/28 03:04:33;;;;;;;1999.90;999.90;;;17.90;99.90;;;;;;5107043;28;20032;-67
2023/09/28 03:06:59;;;;;;;1999.90;999.90;;;17.90;99.90;;;;;;5098365;28;20054;-67
2023/09/28 03:09:25;;;;;;;1999.90;999.90;;;17.90;99.90;;;;;;5097829;28;20103;-67
2023/09/28 03:11:51;;;;;;;1999.90;999.90;;;17.90;99.90;;;;;;5091170;28;20123;-67
2023/09/28 03:14:19;;;;;;;1999.90;999.90;;;17.80;99.90;;;;;;5107039;28;20108;-78
2023/09/28 03:16:44;;;;;;;1999.90;999.90;;;17.80;99.90;;;;;;5102592;28;20411;-67
2023/09/28 03:19:10;;;;;;;1999.90;999.90;;;17.80;99.90;;;;;;5095441;28;20039;-67
2023/09/28 03:21:36;;;;;;;1999.90;999.90;;;17.80;99.90;;;;;;5109113;28;20338;-67
2023/09/28 03:24:02;;;;;;;1999.90;999.90;;;17.70;99.90;;;;;;5102483;28;20035;-67
2023/09/28 03:26:31;;;;;;;1999.90;999.90;;;17.70;99.90;;;;;;5114606;28;20114;-67
2023/09/28 03:28:57;;;;;;;1999.90;999.90;;;17.70;99.90;;;;;;5106590;28;20468;-66
2023/09/28 03:31:27;;;;;;;1999.90;999.90;;;17.60;99.90;;;;;;5102728;28;20073;-66
2023/09/28 03:33:55;;;;;;;1999.90;999.90;;;17.70;99.90;;;;;;5105764;28;20036;-66
2023/09/28 03:36:22;;;;;;;1999.90;999.90;;;17.70;99.90;;;;;;5104269;28;20415;-67
2023/09/28 03:38:48;;;;;;;1999.90;999.90;;;17.70;99.90;;;;;;5105018;28;20032;-77
2023/09/28 03:41:14;;;;;;;1999.90;999.90;;;17.70;99.90;;;;;;5101898;28;20024;-66
2023/09/28 03:43:42;;;;;;;1999.90;999.90;;;17.70;99.90;;;;;;5106299;28;20110;-65
2023/09/28 03:46:08;;;;;;;1999.90;999.90;;;17.70;99.90;;;;;;5100069;28;20414;-66
2023/09/28 03:48:34;;;;;;;1999.90;999.90;;;17.70;99.90;;;;;;5104606;28;20032;-66
2023/09/28 03:51:00;;;;;;;1999.90;999.90;;;17.60;99.90;;;;;;5105013;28;20173;-66
2023/09/28 03:53:26;;;;;;;1999.90;999.90;;;17.60;99.90;;;;;;5111017;28;20107;-66
2023/09/28 03:55:52;;;;;;;1999.90;999.90;;;17.50;99.90;;;;;;5106796;28;20032;-66
2023/09/28 03:58:18;;;;;;;1999.90;999.90;;;17.50;99.90;;;;;;5101086;28;20425;-66
2023/09/28 04:00:44;;;;;;;1999.90;999.90;;;17.50;99.90;;;;;;5110208;28;20028;-66
2023/09/28 04:03:11;;;;;;;1999.90;999.90;;;17.50;99.90;;;;;;5108653;28;20318;-66
2023/09/28 04:05:38;;;;;;;1999.90;999.90;;;17.40;99.90;;;;;;5111633;28;20353;-66
2023/09/28 04:08:04;;;;;;;1999.90;999.90;;;17.40;99.90;;;;;;5098382;28;20094;-65
2023/09/28 04:10:31;;;;;;;1999.90;999.90;;;17.40;99.90;;;;;;5097463;28;20028;-66
2023/09/28 04:12:57;;;;;;;1999.90;999.90;;;17.40;99.90;;;;;;5097786;28;20028;-78
2023/09/28 04:15:23;;;;;;;1999.90;999.90;;;17.30;99.90;;;;;;5101784;28;20058;-66
2023/09/28 04:17:49;;;;;;;1999.90;999.90;;;17.30;99.90;;;;;;5111218;28;20034;-66
2023/09/28 04:20:14;;;;;;;1999.90;999.90;;;17.30;99.90;;;;;;5096752;28;20103;-66
2023/09/28 04:22:40;;;;;;;1999.90;999.90;;;17.30;99.90;;;;;;5083709;28;20027;-67
2023/09/28 04:25:07;;;;;;;1999.90;999.90;;;17.30;99.90;;;;;;5104277;28;20039;-66
2023/09/28 04:27:32;;;;;;;1999.90;999.90;;;17.20;99.90;;;;;;5087910;28;20020;-66
2023/09/28 04:29:58;;;;;;;1999.90;999.90;;;17.30;99.90;;;;;;5100671;28;20028;-72
2023/09/28 04:32:24;;;;;;;1999.90;999.90;;;17.30;99.90;;;;;;5094816;28;20016;-66
2023/09/28 04:34:51;;;;;;;1999.90;999.90;;;17.20;99.90;;;;;;5110650;28;20027;-66
2023/09/28 04:37:16;;;;;;;1999.90;999.90;;;17.20;99.90;;;;;;5106241;28;20034;-66
2023/09/28 04:39:42;;;;;;;1999.90;999.90;;;17.20;99.90;;;;;;5105480;28;20327;-66
2023/09/28 04:42:08;;;;;;;1999.90;999.90;;;17.20;99.90;;;;;;5112956;28;20110;-66
2023/09/28 04:44:34;;;;;;;1999.90;999.90;;;17.10;99.90;;;;;;5110724;28;20107;-66
2023/09/28 04:47:00;;;;;;;1999.90;999.90;;;17.20;99.90;;;;;;5111365;28;20039;-66
2023/09/28 04:49:25;;;;;;;1999.90;999.90;;;17.10;99.90;;;;;;5105605;28;20051;-66
2023/09/28 04:51:51;;;;;;;1999.90;999.90;;;17.10;99.90;;;;;;5115221;28;20016;-66
2023/09/28 04:54:17;;;;;;;1999.90;999.90;;;17.10;99.90;;;;;;5092073;28;20051;-66
2023/09/28 04:56:43;;;;;;;1999.90;999.90;;;17.10;99.90;;;;;;5106860;28;20051;-66
2023/09/28 04:59:08;;;;;;;1999.90;999.90;;;17.10;99.90;;;;;;5107307;28;20028;-66
2023/09/28 05:01:34;;;;;;;1999.90;999.90;;;17.10;99.90;;;;;;5093166;28;20023;-66
2023/09/28 05:04:00;;;;;;;1999.90;999.90;;;17.10;99.90;;;;;;5108888;28;20497;-66
2023/09/28 05:06:27;;;;;;;1999.90;999.90;;;17.20;99.90;;;;;;5112043;28;20038;-66
2023/09/28 05:08:53;;;;;;;1999.90;999.90;;;17.20;99.90;;;;;;5109219;28;20019;-66
2023/09/28 05:11:18;;;;;;;1999.90;999.90;;;17.20;99.90;;;;;;5109812;28;20031;-66
2023/09/28 05:13:44;;;;;;;1999.90;999.90;;;17.10;99.90;;;;;;5110876;28;20062;-77
2023/09/28 05:16:10;;;;;;;1999.90;999.90;;;17.10;99.90;;;;;;5105504;28;20040;-66
2023/09/28 05:18:36;;;;;;;1999.90;999.90;;;17.10;99.90;;;;;;5109650;28;20028;-66
2023/09/28 05:21:02;;;;;;;1999.90;999.90;;;17.00;99.90;;;;;;5109699;28;20032;-67
2023/09/28 05:23:27;;;;;;;1999.90;999.90;;;17.00;99.90;;;;;;5113438;28;20036;-66
2023/09/28 05:25:53;;;;;;;1999.90;999.90;;;17.10;99.90;;;;;;5108873;28;20291;-66
2023/09/28 05:28:19;;;;;;;1999.90;999.90;;;17.10;99.90;;;;;;5105306;28;20135;-66
2023/09/28 05:30:45;;;;;;;1999.90;999.90;;;17.10;99.90;;;;;;5105522;28;20027;-66
2023/09/28 05:33:11;;;;;;;1999.90;999.90;;;17.10;99.90;;;;;;5108160;28;20027;-66
2023/09/28 05:35:37;;;;;;;1999.90;999.90;;;17.20;99.90;;;;;;5110821;28;20027;-66
2023/09/28 05:38:03;;;;;;;1999.90;999.90;;;17.20;99.90;;;;;;5109214;28;20019;-66
2023/09/28 05:40:29;;;;;;;1999.90;999.90;;;17.20;99.90;;;;;;5105290;28;20074;-67
2023/09/28 05:42:55;;;;;;;1999.90;999.90;;;17.20;99.90;;;;;;5092026;28;20040;-66
2023/09/28 05:45:20;;;;;;;1999.90;999.90;;;17.10;99.90;;;;;;5101622;28;20307;-67
2023/09/28 05:47:47;;;;;;;1999.90;999.90;;;17.10;99.90;;;;;;5107208;28;20043;-66
2023/09/28 05:50:13;;;;;;;1999.90;999.90;;;17.10;99.90;;;;;;5111025;28;20044;-66
2023/09/28 05:52:39;;;;;;;1999.90;999.90;;;17.10;99.90;;;;;;5103435;28;20031;-66
2023/09/28 05:55:06;;;;;;;1999.90;999.90;;;17.10;99.90;;;;;;5108274;28;20371;-66
2023/09/28 05:57:32;;;;;;;1999.90;999.90;;;17.10;99.90;;;;;;5105044;28;20059;-67
2023/09/28 05:59:58;;;;;;;1999.90;999.90;;;17.10;99.90;;;;;;5104260;28;20020;-66
2023/09/28 06:02:24;;;;;;;1999.90;999.90;;;17.10;99.90;;;;;;5107398;28;20028;-66
2023/09/28 06:04:50;;;;;;;1999.90;999.90;;;17.10;99.90;;;;;;5109119;28;20031;-66
2023/09/28 06:07:15;;;;;;;1999.90;999.90;;;17.10;99.90;;;;;;5109924;28;20030;-66
2023/09/28 06:09:41;;;;;;;1999.90;999.90;;;17.10;99.90;;;;;;5104296;28;20277;-66
2023/09/28 06:12:07;;;;;;;1999.90;999.90;;;17.10;99.90;;;;;;5108739;28;20026;-66
2023/09/28 06:14:34;;;;;;;1999.90;999.90;;;17.10;99.90;;;;;;5099046;28;20068;-66
2023/09/28 06:17:00;;;;;;;1999.90;999.90;;;17.10;99.90;;;;;;5101255;28;20032;-67
2023/09/28 06:19:27;;;;;;;1999.90;999.90;;;17.10;99.90;;;;;;5107602;28;20515;-67
2023/09/28 06:21:54;;;;;;;1999.90;999.90;;;17.10;99.90;;;;;;5105860;28;20119;-66
2023/09/28 06:24:20;;;;;;;1999.90;999.90;;;17.10;99.90;;;;;;5110225;28;20035;-67
2023/09/28 06:26:46;;;;;;;1999.90;999.90;;;17.10;99.90;;;;;;5111561;28;20023;-67
2023/09/28 06:29:11;;;;;;;1999.90;999.90;;;17.10;99.90;;;;;;5107318;28;20050;-66
2023/09/28 06:31:38;;;;;;;1999.90;999.90;;;17.10;99.90;;;;;;5108381;27;20080;-67
2023/09/28 06:34:04;;;;;;;1999.90;999.90;;;17.10;99.90;;;;;;5106557;27;21274;-67
2023/09/28 06:36:30;;;;;;;1999.90;999.90;;;17.10;99.90;;;;;;5102683;28;20480;-68
2023/09/28 06:38:55;;;;;;;1999.90;999.90;;;17.10;99.90;;;;;;5103340;27;20106;-67
2023/09/28 06:41:22;;;;;;;1999.90;999.90;;;17.10;99.90;;;;;;5116634;27;20054;-66
2023/09/28 06:43:50;;;;;;;;;;;17.10;99.90;;;;;;5105512;27;20028;-67
2023/09/28 06:46:17;;;;;;;1999.90;999.90;;;17.10;99.90;;;;;;5107587;27;20300;-66
2023/09/28 06:48:43;;;;;;;1999.90;999.90;;;17.20;99.90;;;;;;5083200;28;20319;-66
2023/09/28 06:51:09;;;;;;;1999.90;999.90;;;17.10;99.90;;;;;;5094881;27;20048;-67
2023/09/28 06:53:35;;;;;;;1999.90;999.90;;;17.20;99.90;;;;;;5105722;27;20019;-67
2023/09/28 06:56:02;;;;;;;1999.90;999.90;;;17.40;99.90;;;;;;5080106;28;20072;-66
2023/09/28 06:58:28;;;;;;;1999.90;999.90;;;17.30;99.90;;;;;;5111240;27;20411;-77
2023/09/28 07:00:53;;;;;;;1999.90;999.90;;;17.30;99.90;;;;;;5102535;27;20133;-67
2023/09/28 07:03:20;;;;;;;1999.90;999.90;;;17.30;99.90;;;;;;5098066;27;20062;-67
2023/09/28 07:05:46;;;;;;;1999.90;999.90;;;17.30;99.90;;;;;;5110340;27;20045;-66
2023/09/28 07:08:12;;;;;;;1999.90;999.90;;;17.30;99.90;;;;;;5110076;27;20310;-66
2023/09/28 07:10:38;;;;;;;1999.90;999.90;;;17.20;99.90;;;;;;5112809;27;20520;-66
2023/09/28 07:13:05;;;;;;;1999.90;999.90;;;17.20;99.90;;;;;;5112117;27;21316;-67
2023/09/28 07:15:36;;;;;;;1999.90;999.90;;;17.20;99.90;;;;;;5103665;27;20111;-78
2023/09/28 07:18:03;;;;;;;1999.90;999.90;;;17.20;99.90;;;;;;5083784;28;20157;-67
2023/09/28 07:20:29;;;;;;;1999.90;999.90;;;17.20;99.90;;;;;;5104519;28;20143;-67
2023/09/28 07:22:54;;;;;;;1999.90;999.90;;;17.20;99.90;;;;;;5112523;27;20173;-67
2023/09/28 07:25:20;;;;;;;1999.90;999.90;;;17.20;99.90;;;;;;5101563;27;20032;-67
2023/09/28 07:27:49;;;;;;;1999.90;999.90;;;17.20;99.90;;;;;;5100884;27;20024;-67
2023/09/28 07:30:15;;;;;;;1999.90;999.90;;;17.10;99.90;;;;;;5102666;27;20024;-67
2023/09/28 07:32:41;;;;;;;1999.90;999.90;;;17.20;99.90;;;;;;5100126;28;20032;-67
2023/09/28 07:35:11;;;;;;;1999.90;999.90;;;17.20;99.90;;;;;;5102994;28;20028;-67
2023/09/28 07:37:37;;;;;;;1999.90;999.90;;;17.20;99.90;;;;;;5102416;27;20448;-67
2023/09/28 07:40:04;;;;;;;1999.90;999.90;;;17.30;99.90;;;;;;5106164;27;20038;-68
2023/09/28 07:42:30;;;;;;;;;;;17.30;99.90;;;;;;5105792;27;20070;-67
2023/09/28 07:44:56;;;;;;;1999.90;999.90;;;17.30;99.90;;;;;;5105200;27;19912;-66
2023/09/28 07:47:22;;;;;;;1999.90;999.90;;;17.30;99.90;;;;;;5102126;28;20054;-66
2023/09/28 07:49:48;;;;;;;1999.90;999.90;;;17.30;99.90;;;;;;5095261;28;20115;-66
2023/09/28 07:52:15;;;;;;;1999.90;999.90;;;17.30;99.90;;;;;;5095035;28;20411;-66
2023/09/28 07:54:41;;;;;;;1999.90;999.90;;;17.30;99.90;;;;;;5099551;28;20040;-66
2023/09/28 07:57:09;;;;;;;1999.90;999.90;;;17.30;99.90;;;;;;5094667;28;20434;-77
2023/09/28 07:59:35;;;;;;;1999.90;999.90;;;17.30;99.90;;;;;;5100068;28;20435;-66
2023/09/28 08:02:02;;;;;;;1999.90;999.90;;;17.40;99.90;;;;;;5098405;28;20062;-67
2023/09/28 08:04:28;;;;;;;1999.90;999.90;;;17.40;99.90;;;;;;5100227;28;20032;-66
2023/09/28 08:06:55;;;;;;;1999.90;999.90;;;17.40;99.90;;;;;;5097307;28;20036;-67
2023/09/28 08:09:23;;;;;;;1999.90;999.90;;;17.40;99.90;;;;;;5094412;28;20020;-67
2023/09/28 08:11:49;;;;;;;1999.90;999.90;;;17.50;99.90;;;;;;5102787;28;20035;-67
2023/09/28 08:14:18;;;;;;;1999.90;999.90;;;17.50;99.90;;;;;;5101049;28;20103;-66
2023/09/28 08:16:45;;;;;;;1999.90;999.90;;;17.60;99.90;;;;;;5095650;28;20169;-66
2023/09/28 08:19:11;;;;;;;;;;;17.70;99.90;;;;;;5096706;28;20765;-66
2023/09/28 08:21:40;;;;;;;1999.90;999.90;;;17.70;99.90;;;;;;5100120;28;20002;-66
2023/09/28 08:24:08;;;;;;;1999.90;999.90;;;17.80;99.90;;;;;;5098572;28;20039;-66
2023/09/28 08:26:34;;;;;;;1999.90;999.90;;;17.80;99.90;;;;;;5094385;28;20028;-66
2023/09/28 08:29:00;;;;;;;1999.90;999.90;;;17.80;99.90;;;;;;5094431;28;20057;-66
2023/09/28 08:31:30;;;;;;;1999.90;999.90;;;17.90;99.90;;;;;;5101506;28;20036;-67
2023/09/28 08:33:58;;;;;;;1999.90;999.90;;;17.90;99.90;;;;;;5102972;28;20113;-66
2023/09/28 08:36:25;;;;;;;1999.90;999.90;;;17.90;99.90;;;;;;5100233;28;20157;-66
2023/09/28 08:38:51;;;;;;;1999.90;999.90;;;18.00;99.90;;;;;;5078672;28;20036;-66
2023/09/28 08:41:21;;;;;;;1999.90;999.90;;;18.10;99.90;;;;;;5111761;28;20028;-66
2023/09/28 08:43:54;;;;;;;1999.90;999.90;;;18.20;99.90;;;;;;5094306;28;20032;-66
2023/09/28 08:46:24;;;;;;;1999.90;999.90;;;18.20;99.90;;;;;;5100625;28;20023;-67
2023/09/28 08:48:51;;;;;;;1999.90;999.90;;;18.20;99.90;;;;;;5099018;28;20111;-67
2023/09/28 08:51:18;;;;;;;1999.90;999.90;;;18.20;99.90;;;;;;5102719;28;20042;-66
2023/09/28 08:53:48;;;;;;;1999.90;999.90;;;18.30;99.90;;;;;;5100873;28;20411;-77
2023/09/28 08:56:14;;;;;;;1999.90;999.90;;;18.40;99.90;;;;;;5103927;28;20115;-67
2023/09/28 08:58:43;;;;;;;1999.90;999.90;;;18.40;99.90;;;;;;5110135;28;20106;-68
2023/09/28 09:01:10;;;;;;;1999.90;999.90;;;18.40;99.90;;;;;;5108586;28;20041;-71
2023/09/28 09:03:38;;;;;;;1999.90;999.90;;;18.40;99.90;;;;;;5107847;28;20035;-67
2023/09/28 09:06:08;;;;;;;1999.90;999.90;;;18.50;99.90;;;;;;5095611;28;20024;-77
2023/09/28 09:08:42;;;;;;;1999.90;999.90;;;18.60;99.90;;;;;;5106182;28;20024;-78
2023/09/28 09:11:12;;;;;;;1999.90;999.90;;;18.90;99.90;;;;;;5081920;28;20093;-78
2023/09/28 09:13:49;;;;;;;1999.90;999.90;;;19.10;99.90;;;;;;5083610;28;20465;-79
2023/09/28 09:16:15;;;;;;;1999.90;999.90;;;19.30;99.90;;;;;;5087604;28;20034;-81
2023/09/28 09:18:41;;;;;;;1999.90;999.90;;;19.60;99.90;;;;;;5093404;28;20036;-80
2023/09/28 09:21:07;;;;;;;1999.90;999.90;;;19.60;99.90;;;;;;5078053;28;20040;-78
2023/09/28 09:23:33;;;;;;;1999.90;999.90;;;19.70;99.90;;;;;;5087216;28;20062;-78
2023/09/28 09:25:59;;;;;;;1999.90;999.90;;;19.70;99.90;;;;;;5098952;28;20064;-69
2023/09/28 09:28:33;;;;;;;1999.90;999.90;;;19.70;99.90;;;;;;5105203;28;20019;-78
2023/09/28 09:31:03;;;;;;;1999.90;999.90;;;19.60;99.90;;;;;;5110662;27;20070;-68
2023/09/28 09:33:29;;;;;;;1999.90;999.90;;;19.70;99.90;;;;;;5099168;28;20027;-67
2023/09/28 09:35:55;;;;;;;1999.90;999.90;;;19.60;99.90;;;;;;5097893;28;20032;-67
2023/09/28 09:38:28;;;;;;;1999.90;999.90;;;19.70;99.90;;;;;;5106143;28;20066;-67
2023/09/28 09:41:00;;;;;;;1999.90;999.90;;;19.70;99.90;;;;;;5112273;28;20039;-67
2023/09/28 09:43:31;;;;;;;1999.90;999.90;;;19.70;99.90;;;;;;5104502;28;20032;-66
2023/09/28 09:45:56;;;;;;;1999.90;999.90;;;19.90;99.90;;;;;;5108925;28;20059;-67
2023/09/28 09:48:24;;;;;;;1999.90;999.90;;;20.10;99.90;;;;;;5105680;28;20046;-67
2023/09/28 09:50:50;;;;;;;1999.90;999.90;;;20.20;99.90;;;;;;5102114;28;20431;-67
2023/09/28 09:53:17;;;;;;;1999.90;999.90;;;20.30;99.90;;;;;;5100636;28;20035;-66
2023/09/28 09:55:42;;;;;;;;;;;20.30;99.90;;;;;;5101986;28;20491;-68
2023/09/28 09:58:13;;;;;;;1999.90;999.90;;;20.30;99.90;;;;;;5101665;28;19994;-68
2023/09/28 10:00:41;;;;;;;1999.90;999.90;;;20.10;99.90;;;;;;5101854;28;20066;-67
2023/09/28 10:03:08;;;;;;;1999.90;999.90;;;20.00;99.90;;;;;;5101578;28;20024;-78
2023/09/28 10:05:36;;;;;;;1999.90;999.90;;;19.90;99.90;;;;;;5100589;28;20059;-67
2023/09/28 10:08:05;;;;;;;1999.90;999.90;;;19.80;99.90;;;;;;5104051;28;20024;-68
2023/09/28 10:10:33;;;;;;;1999.90;999.90;;;19.80;99.90;;;;;;5098103;28;20442;-68
2023/09/28 10:13:00;;;;;;;1999.90;999.90;;;19.90;99.90;;;;;;5101310;28;20027;-68
2023/09/28 10:15:26;;;;;;;1999.90;999.90;;;19.90;99.90;;;;;;5078792;28;20024;-78
2023/09/28 10:17:53;;;;;;;1999.90;999.90;;;19.90;99.90;;;;;;5101178;28;20118;-67
2023/09/28 10:20:19;;;;;;;1999.90;999.90;;;20.00;99.90;;;;;;5101902;27;20028;-67
2023/09/28 10:22:45;;;;;;;1999.90;999.90;;;19.90;99.90;;;;;;5109246;27;20054;-67
2023/09/28 10:25:15;;;;;;;1999.90;999.90;;;19.90;99.90;;;;;;5108686;27;20406;-67
2023/09/28 10:27:43;;;;;;;1999.90;999.90;;;19.80;99.90;;;;;;5100771;27;20092;-68
2023/09/28 10:30:20;;;;;;;1999.90;999.90;;;19.70;99.90;;;;;;5100011;27;20024;-67
2023/09/28 10:32:47;;;;;;;1999.90;999.90;;;19.70;99.90;;;;;;5108959;27;20031;-67
2023/09/28 10:35:26;;;;;;;1999.90;999.90;;;19.60;99.90;;;;;;5101377;27;20356;-68
2023/09/28 10:38:23;;;;;;;1999.90;999.90;;;19.40;99.90;;;;;;5102230;27;20695;-77
2023/09/28 10:40:58;;;;;;;1999.90;999.90;;;19.40;99.90;;;;;;5108729;27;20032;-67
2023/09/28 10:43:31;;;;;;;1999.90;999.90;;;19.40;99.90;;;;;;5109436;27;20359;-68
2023/09/28 10:46:04;;;;;;;1999.90;999.90;;;19.40;99.90;;;;;;5111127;27;20115;-67
2023/09/28 10:48:44;;;;;;;1999.90;999.90;;;19.40;99.90;;;;;;5098001;28;20338;-68
2023/09/28 10:51:16;;;;;;;1999.90;999.90;;;19.30;99.90;;;;;;5099398;27;20063;-67
2023/09/28 10:53:43;;;;;;;1999.90;999.90;;;19.40;99.90;;;;;;5102553;27;20533;-78
2023/09/28 10:56:10;;;;;;;1999.90;999.90;;;19.40;99.90;;;;;;5106235;28;20027;-67
2023/09/28 10:58:41;;;;;;;1999.90;999.90;;;19.40;99.90;;;;;;5096096;28;20060;-80
2023/09/28 11:01:08;;;;;;;1999.90;999.90;;;19.40;99.90;;;;;;5081742;28;20059;-67
2023/09/28 11:03:35;;;;;;;1999.90;999.90;;;19.40;99.90;;;;;;5096682;28;20032;-67
2023/09/28 11:06:04;;;;;;;1999.90;999.90;;;19.40;99.90;;;;;;5106338;28;20164;-67
2023/09/28 11:08:33;;;;;;;1999.90;999.90;;;19.40;99.90;;;;;;5103056;28;20032;-67
2023/09/28 11:11:01;;;;;;;1999.90;999.90;;;19.40;99.90;;;;;;5105608;28;20106;-67
2023/09/28 11:13:30;;;;;;;1999.90;999.90;;;19.60;99.90;;;;;;5107598;28;20024;-78
2023/09/28 11:15:57;;;;;;;1999.90;999.90;;;19.70;99.90;;;;;;5107138;28;20020;-68
2023/09/28 11:18:26;;;;;;;1999.90;999.90;;;19.70;99.90;;;;;;5108929;28;20035;-67
2023/09/28 11:20:58;;;;;;;1999.90;999.90;;;19.60;99.90;;;;;;5105119;28;20107;-67
2023/09/28 11:23:24;;;;;;;1999.90;999.90;;;19.70;99.90;;;;;;5109005;28;20657;-78
2023/09/28 11:25:51;;;;;;;1999.90;999.90;;;19.60;99.90;;;;;;5104234;28;20031;-77
2023/09/28 11:28:18;;;;;;;1999.90;999.90;;;19.60;99.90;;;;;;5106998;28;20426;-67
2023/09/28 11:30:44;;;;;;;1999.90;999.90;;;19.60;99.90;;;;;;5106425;28;20039;-67
2023/09/28 11:33:10;;;;;;;1999.90;999.90;;;19.80;99.90;;;;;;5108914;28;20035;-67
2023/09/28 11:35:39;;;;;;;1999.90;999.90;;;19.80;99.90;;;;;;5106225;28;20039;-68
2023/09/28 11:38:10;;;;;;;1999.90;999.90;;;19.70;99.90;;;;;;5102362;28;20031;-67
2023/09/28 11:40:38;;;;;;;1999.90;999.90;;;19.70;99.90;;;;;;5082566;28;20028;-67
2023/09/28 11:43:05;;;;;;;1999.90;999.90;;;19.70;99.90;;;;;;5108561;28;20075;-67
2023/09/28 11:45:33;;;;;;;;;;;19.60;99.90;;;;;;5106823;28;20031;-68
2023/09/28 11:48:04;;;;;;;1999.90;999.90;;;19.60;99.90;;;;;;5103668;28;19916;-67
2023/09/28 11:50:32;;;;;;;1999.90;999.90;;;19.60;99.90;;;;;;5099426;28;20071;-67
2023/09/28 11:52:58;;;;;;;1999.90;999.90;;;19.70;99.90;;;;;;5105380;28;20024;-67
2023/09/28 11:55:24;;;;;;;1999.90;999.90;;;19.60;99.90;;;;;;5101715;28;20165;-67
2023/09/28 11:57:50;;;;;;;1999.90;999.90;;;19.70;99.90;;;;;;5099265;28;20040;-67
2023/09/28 12:00:19;;;;;;;1999.90;999.90;;;19.80;99.90;;;;;;5095914;28;20031;-67
2023/09/28 12:02:48;;;;;;;1999.90;999.90;;;19.80;99.90;;;;;;5102443;28;20028;-67